Latest Weather Observations for Noonamah

IDD60801

Issued at 7:11 pm CST Sunday 19 August 2018 (issued every 10 minutes, with the page automatically refreshed every 10 minutes)

About weather observations | Map of weather stations | Latest weather observations for NT | Other Formats
Station Details ID: 014314 Name: NOONAMAH AIRSTRIP Lat: -12.61 Lon: 131.05 Height: 17.5 m
Data from the previous 72 hours. | See also: Recent months at Noonamah
Date/Time
CST
Temp
°C
App
Temp
°C
Dew
Point
°C
Rel
Hum
%
Delta-T
°C
Wind Press
QNH
hPa
Press
MSL
hPa
Rain since
9am
mm
Dir  Spd
km/h
Gust
km/h
Spd
kts
Gust
kts
19/07:00pm 29.1 30.2 14.5 41 8.8 NE 2 6 1 3 1011.9 1011.8 0.0
19/06:30pm 30.3 30.4 14.0 37 9.8 NNE 6 11 3 6 1011.6 1011.5 0.0
19/06:00pm 31.5 31.3 14.6 36 10.3 NE 9 15 5 8 1011.2 1011.1 0.0
19/05:30pm 32.1 31.6 13.8 33 11.1 NE 9 17 5 9 1010.9 1010.8 0.0
19/05:00pm 32.7 31.8 13.8 31 11.5 NNE 11 20 6 11 1010.7 1010.6 0.0
19/04:30pm 33.6 31.6 11.5 26 13.0 ENE 13 20 7 11 1010.5 1010.4 0.0
19/04:00pm 33.8 31.7 11.0 25 13.3 E 13 20 7 11 1010.6 1010.5 0.0
19/03:30pm 33.3 30.3 10.6 25 13.2 E 17 22 9 12 1010.8 1010.7 0.0
19/03:00pm 34.4 31.9 10.9 24 13.8 ENE 15 24 8 13 1011.1 1011.0 0.0
19/02:30pm 33.6 31.2 11.5 26 13.0 E 15 22 8 12 1011.5 1011.4 0.0
19/02:00pm 33.5 31.5 11.4 26 13.0 ESE 13 20 7 11 1011.9 1011.8 0.0
19/01:30pm 33.7 30.7 12.1 27 12.8 E 19 32 10 17 1012.4 1012.3 0.0
19/01:00pm 32.0 28.7 11.7 28 11.9 E 20 35 11 19 1012.8 1012.7 0.0
19/12:30pm 31.8 28.8 12.1 30 11.6 ENE 19 28 10 15 1013.2 1013.1 0.0
19/12:00pm 31.7 30.3 13.5 33 11.0 ENE 13 24 7 13 1013.8 1013.7 0.0
19/11:30am 30.8 29.4 14.4 36 10.0 ENE 15 28 8 15 1014.4 1014.3 0.0
19/11:00am 29.6 29.2 16.1 44 8.4 ENE 13 28 7 15 1014.9 1014.8 0.0
19/10:30am 29.0 29.4 17.2 49 7.4 ENE 11 19 6 10 1015.2 1015.1 0.0
19/10:00am 28.2 28.3 17.4 52 6.8 ENE 13 20 7 11 1015.5 1015.4 0.0
19/09:30am 27.1 28.8 18.4 59 5.5 NE 7 15 4 8 1015.4 1015.3 0.0
19/09:00am 26.2 28.2 19.1 65 4.6 NE 7 13 4 7 1015.4 1015.3 0.0
19/08:30am 24.2 26.8 19.3 74 3.1 ENE 4 7 2 4 1015.3 1015.2 0.0
19/08:00am 21.7 25.0 19.1 85 1.6 CALM 0 0 0 0 1015.0 1014.9 0.0
19/07:30am 19.0 21.4 17.0 88 1.2 CALM 0 0 0 0 1014.6 1014.5 0.0
19/07:00am 18.1 20.1 16.1 88 1.2 CALM 0 0 0 0 1014.4 1014.3 0.0
19/06:30am 18.7 21.0 16.7 88 1.2 CALM 0 4 0 2 1014.2 1014.1 0.0
19/06:00am 19.1 21.6 17.2 89 1.2 CALM 0 0 0 0 1013.9 1013.8 0.0
19/05:30am 19.2 21.6 17.0 87 1.3 CALM 0 0 0 0 1013.6 1013.5 0.0
19/05:00am 19.7 22.3 17.5 87 1.3 CALM 0 0 0 0 1013.4 1013.3 0.0
19/04:30am 19.8 22.4 17.6 87 1.3 CALM 0 0 0 0 1013.4 1013.3 0.0
19/04:00am 19.9 22.5 17.5 86 1.5 CALM 0 0 0 0 1013.3 1013.2 0.0
19/03:30am 20.3 22.7 17.9 86 1.5 SE 2 6 1 3 1013.3 1013.2 0.0
19/03:00am 20.1 21.9 18.2 89 1.2 ESE 6 7 3 4 1013.7 1013.6 0.0
19/02:30am 20.2 22.9 17.8 86 1.5 CALM 0 0 0 0 1013.6 1013.5 0.0
19/02:00am 20.1 22.7 17.5 85 1.6 CALM 0 0 0 0 1013.7 1013.6 0.0
19/01:30am 20.6 23.2 17.6 83 1.8 CALM 0 0 0 0 1013.7 1013.6 0.0
19/01:00am 21.0 23.9 18.2 84 1.7 CALM 0 0 0 0 1013.9 1013.8 0.0
19/12:30am 21.6 24.6 19.3 87 1.5 NE 2 7 1 4 1014.1 1014.0 0.0
19/12:00am 20.7 23.1 16.9 79 2.3 CALM 0 0 0 0 1013.4 1013.3 0.0
 
Date/Time
CST
Temp
°C
App
Temp
°C
Dew
Point
°C
Rel
Hum
%
Delta-T
°C
Wind Press
QNH
hPa
Press
MSL
hPa
Rain since
9am
mm
Dir  Spd
km/h
Gust
km/h
Spd
kts
Gust
kts
18/11:30pm 21.6 24.3 17.8 79 2.4 CALM 0 0 0 0 1013.4 1013.3 0.0
18/11:00pm 22.2 24.5 17.6 75 2.8 SW 2 4 1 2 1013.3 1013.2 0.0
18/10:30pm 22.7 25.3 17.6 73 3.2 CALM 0 2 0 1 1013.2 1013.1 0.0
18/10:00pm 23.5 25.6 18.2 72 3.3 SW 4 4 2 2 1012.9 1012.8 0.0
18/09:30pm 24.5 27.7 18.9 71 3.6 CALM 0 0 0 0 1012.9 1012.8 0.0
18/09:00pm 25.1 27.6 19.0 69 3.9 WSW 4 6 2 3 1012.5 1012.4 0.0
18/08:30pm 25.7 27.8 18.9 66 4.3 W 6 9 3 5 1012.3 1012.2 0.0
18/08:00pm 26.1 28.8 19.5 67 4.3 WNW 4 6 2 3 1012.0 1011.9 0.0
18/07:30pm 26.6 28.8 19.7 66 4.5 NW 7 11 4 6 1011.5 1011.4 0.0
18/07:00pm 27.3 29.3 19.9 64 4.8 WNW 9 15 5 8 1011.1 1011.0 0.0
18/06:30pm 29.4 31.1 18.5 52 7.0 NW 7 19 4 10 1010.7 1010.6 0.0
18/06:00pm 31.2 32.3 17.1 42 8.9 NW 7 13 4 7 1010.3 1010.2 0.0
18/05:30pm 33.2 33.1 9.3 23 13.6 CALM 0 0 0 0 1010.0 1009.9 0.0
18/05:00pm 32.9 31.4 9.0 23 13.5 SSE 7 11 4 6 1010.0 1009.9 0.0
18/04:30pm 33.1 32.3 9.8 24 13.3 E 4 7 2 4 1009.9 1009.8 0.0
18/04:00pm 34.1 32.9 9.4 22 14.1 SE 6 19 3 10 1009.9 1009.8 0.0
18/03:30pm 34.3 32.3 10.2 23 14.0 SE 11 19 6 10 1010.1 1010.0 0.0
18/03:00pm 32.9 31.7 10.3 25 13.0 SE 7 13 4 7 1010.3 1010.2 0.0
18/02:30pm 31.9 30.0 10.6 27 12.3 SE 11 20 6 11 1010.6 1010.5 0.0
18/02:00pm 32.4 31.8 11.6 28 12.2 S 6 15 3 8 1011.0 1010.9 0.0
18/01:30pm 32.7 32.6 13.4 31 11.7 ESE 6 15 3 8 1011.5 1011.4 0.0
18/01:00pm 31.4 31.0 14.1 35 10.5 SE 9 19 5 10 1012.1 1012.0 0.0
18/12:30pm 31.6 32.8 16.0 39 9.7 SSE 4 7 2 4 1012.8 1012.7 0.0
18/12:00pm 30.3 30.8 15.6 41 9.1 NE 7 13 4 7 1013.6 1013.5 0.0
18/11:30am 30.4 32.0 16.8 44 8.6 NE 4 11 2 6 1014.1 1014.0 0.0
18/11:00am 28.9 29.8 16.5 47 7.7 N 7 13 4 7 1014.6 1014.5 0.0
18/10:30am 28.5 29.3 17.4 51 7.0 NE 9 15 5 8 1015.1 1015.0 0.0
18/10:00am 27.7 28.3 16.9 51 6.7 NNE 9 19 5 10 1015.2 1015.1 0.0
18/09:30am 26.5 28.5 19.1 64 4.8 NE 7 13 4 7 1015.2 1015.1 0.0
18/09:00am 25.4 27.7 19.5 70 3.8 NNE 6 17 3 9 1015.1 1015.0 0.0
18/08:30am 22.9 25.0 18.0 74 3.1 ENE 4 9 2 5 1014.8 1014.7 0.0
18/08:00am 21.1 22.9 17.3 79 2.3 E 4 6 2 3 1014.7 1014.6 0.0
18/07:30am 19.8 21.8 17.0 84 1.7 ESE 2 4 1 2 1014.3 1014.2 0.0
18/07:00am 19.0 20.5 16.6 86 1.4 E 4 6 2 3 1013.9 1013.8 0.0
18/06:30am 18.9 20.5 16.9 88 1.2 ESE 4 6 2 3 1013.8 1013.7 0.0
18/06:00am 18.2 20.0 15.6 85 1.5 CALM 0 0 0 0 1013.4 1013.3 0.0
18/05:30am 18.4 20.3 15.8 85 1.5 CALM 0 2 0 1 1013.0 1012.9 0.0
18/05:00am 18.5 20.3 16.5 88 1.2 E 2 6 1 3 1012.8 1012.7 0.0
18/04:30am 18.6 20.8 16.4 87 1.3 CALM 0 0 0 0 1012.5 1012.4 0.0
18/04:00am 18.9 21.3 17.0 89 1.1 CALM 0 0 0 0 1012.5 1012.4 0.0
18/03:30am 18.4 20.2 15.6 84 1.7 CALM 0 0 0 0 1012.6 1012.5 0.0
18/03:00am 19.2 21.5 16.8 86 1.4 CALM 0 0 0 0 1012.5 1012.4 0.0
18/02:30am 19.4 21.7 16.8 85 1.6 CALM 0 0 0 0 1012.5 1012.4 0.0
18/02:00am 19.3 21.4 16.3 83 1.8 CALM 0 0 0 0 1012.6 1012.5 0.0
18/01:30am 19.6 21.5 15.7 78 2.3 CALM 0 0 0 0 1012.5 1012.4 0.0
18/01:00am 19.7 21.6 15.8 78 2.3 CALM 0 0 0 0 1012.6 1012.5 0.0
18/12:30am 20.1 22.0 15.7 76 2.6 CALM 0 0 0 0 1012.7 1012.6 0.0
18/12:00am 20.6 22.5 15.8 74 2.9 CALM 0 0 0 0 1012.9 1012.8 0.0
 
Date/Time
CST
Temp
°C
App
Temp
°C
Dew
Point
°C
Rel
Hum
%
Delta-T
°C
Wind Press
QNH
hPa
Press
MSL
hPa
Rain since
9am
mm
Dir  Spd
km/h
Gust
km/h
Spd
kts
Gust
kts
17/11:30pm 22.0 23.7 16.3 70 3.5 SW 2 4 1 2 1012.7 1012.6 0.0
17/11:00pm 23.0 25.2 18.3 75 2.9 SW 4 7 2 4 1012.6 1012.5 0.0
17/10:30pm 23.1 24.7 16.9 68 3.8 WSW 4 4 2 2 1012.5 1012.4 0.0
17/10:00pm 24.0 25.9 16.8 64 4.4 SW 2 4 1 2 1012.6 1012.5 0.0
17/09:30pm 24.6 26.6 17.8 66 4.3 W 4 6 2 3 1012.5 1012.4 0.0
17/09:00pm 24.9 26.9 18.8 69 3.9 WSW 6 7 3 4 1012.3 1012.2 0.0
17/08:30pm 25.6 26.5 16.2 56 5.8 WSW 6 7 3 4 1011.9 1011.8 0.0
17/08:00pm 26.2 26.4 14.3 48 7.1 W 6 7 3 4 1011.4 1011.3 0.0
17/07:30pm 27.0 27.2 13.0 42 8.2 NW 4 6 2 3 1010.9 1010.8 0.0
17/07:00pm 27.9 27.5 13.1 40 8.7 NNW 7 11 4 6 1010.2 1010.1 0.0
17/06:30pm 28.9 28.3 13.6 39 9.1 NNW 9 17 5 9 1009.7 1009.6 0.0
17/06:00pm 30.2 30.6 16.2 42 8.7 NNW 9 15 5 8 1009.3 1009.2 0.0
17/05:30pm 31.2 31.9 17.1 42 9.0 NW 9 15 5 8 1008.8 1008.7 0.0
17/05:00pm 31.7 32.8 17.9 43 8.9 NW 9 17 5 9 1008.4 1008.3 0.0
17/04:30pm 31.8 32.3 16.5 39 9.6 WNW 9 17 5 9 1008.3 1008.2 0.0
17/04:00pm 31.4 32.4 17.7 44 8.8 NNW 9 17 5 9 1008.3 1008.2 0.0
17/03:30pm 32.2 31.5 11.9 29 12.0 SE 7 9 4 5 1008.5 1008.4 0.0
17/03:00pm 33.0 32.3 11.5 27 12.6 NE 6 9 3 5 1008.7 1008.6 0.0
17/02:30pm 31.3 30.0 11.1 29 11.7 ENE 9 15 5 8 1009.2 1009.1 0.0
17/02:00pm 32.4 31.9 12.1 29 12.0 NE 6 11 3 6 1009.5 1009.4 0.0
17/01:30pm 32.6 31.9 13.3 31 11.6 ENE 9 19 5 10 1009.9 1009.8 0.0
17/01:00pm 31.8 31.7 14.0 34 10.8 E 7 15 4 8 1010.3 1010.2 0.0
17/12:30pm 31.0 30.3 14.2 36 10.2 ESE 11 19 6 10 1010.9 1010.8 0.0
17/12:00pm 30.9 30.8 14.9 37 9.8 E 9 19 5 10 1011.5 1011.4 0.0
17/11:30am 29.3 28.8 15.8 44 8.3 E 13 22 7 12 1012.1 1012.0 0.0
17/11:00am 28.9 29.0 16.5 47 7.7 ENE 11 19 6 10 1012.6 1012.5 0.0
17/10:30am 28.0 28.3 16.9 51 6.9 NE 11 19 6 10 1013.0 1012.9 0.0
17/10:00am 27.0 27.7 18.8 60 5.3 NE 13 20 7 11 1013.2 1013.1 0.0
17/09:30am 26.5 26.9 19.1 64 4.8 E 15 22 8 12 1013.2 1013.1 0.0
17/09:00am 25.9 27.6 19.3 67 4.2 E 9 15 5 8 1013.1 1013.0 0.0
17/08:30am 24.1 26.3 19.2 74 3.1 E 6 9 3 5 1012.9 1012.8 0.0
17/08:00am 21.7 23.4 18.1 80 2.2 E 6 9 3 5 1012.8 1012.7 0.0
17/07:30am 19.8 22.1 17.6 87 1.3 E 2 4 1 2 1012.5 1012.4 0.0
17/07:00am 19.3 21.1 17.3 88 1.2 E 4 4 2 2 1012.2 1012.1 0.0
17/06:30am 18.9 21.2 16.7 87 1.3 CALM 0 0 0 0 1011.9 1011.8 0.0
17/06:00am 18.9 20.0 16.7 87 1.3 ESE 6 6 3 3 1011.6 1011.5 0.0
17/05:30am 19.1 21.1 16.9 87 1.3 ESE 2 4 1 2 1011.5 1011.4 0.0
17/05:00am 19.3 21.5 16.5 84 1.7 CALM 0 0 0 0 1011.4 1011.3 0.0
17/04:30am 19.8 22.1 16.8 83 1.8 CALM 0 0 0 0 1011.4 1011.3 0.0
17/04:00am 19.9 22.2 16.7 82 1.9 CALM 0 0 0 0 1011.4 1011.3 0.0
17/03:30am 20.2 22.7 17.2 83 1.8 CALM 0 0 0 0 1011.6 1011.5 0.0
17/03:00am 20.5 23.0 17.3 82 2.0 CALM 0 0 0 0 1011.8 1011.7 0.0
17/02:30am 20.6 23.2 17.6 83 1.8 CALM 0 6 0 3 1012.1 1012.0 0.0
17/02:00am 20.4 23.0 17.6 84 1.7 CALM 0 0 0 0 1012.2 1012.1 0.0
17/01:30am 19.7 22.0 16.7 83 1.8 CALM 0 0 0 0 1012.2 1012.1 0.0
17/01:00am 20.1 22.4 16.7 81 2.1 CALM 0 0 0 0 1012.1 1012.0 0.0
17/12:30am 20.5 22.7 16.5 78 2.4 CALM 0 0 0 0 1012.1 1012.0 0.0
17/12:00am 21.6 24.1 17.2 76 2.7 CALM 0 0 0 0 1012.1 1012.0 0.0
 
Date/Time
CST
Temp
°C
App
Temp
°C
Dew
Point
°C
Rel
Hum
%
Delta-T
°C
Wind Press
QNH
hPa
Press
MSL
hPa
Rain since
9am
mm
Dir  Spd
km/h
Gust
km/h
Spd
kts
Gust
kts
16/11:30pm 21.9 24.4 17.3 75 2.8 CALM 0 4 0 2 1012.1 1012.0 0.0
16/11:00pm 23.6 26.2 17.6 69 3.7 CALM 0 0 0 0 1012.0 1011.9 0.0
16/10:30pm 23.9 25.5 17.9 69 3.8 SW 6 7 3 4 1012.0 1011.9 0.0
16/10:00pm 24.1 26.7 18.5 71 3.5 WSW 2 4 1 2 1012.0 1011.9 0.0
16/09:30pm 24.5 27.0 19.1 72 3.5 WNW 4 6 2 3 1011.9 1011.8 0.0
16/09:00pm 24.6 26.9 19.4 73 3.3 WSW 6 7 3 4 1011.6 1011.5 0.0
16/08:30pm 25.1 27.2 19.0 69 3.9 WSW 6 7 3 4 1011.4 1011.3 0.0
16/08:00pm 26.0 27.0 16.3 55 6.0 W 6 9 3 5 1010.9 1010.8 0.0
16/07:30pm 26.8 28.0 15.8 51 6.7 W 4 6 2 3 1010.4 1010.3 0.0

Other Formats:

Comma delimited format used in spreadsheet applications
http://www.bom.gov.au/fwo/IDD60801/IDD60801.94105.axf

JavaScript Object Notation format (JSON) in row-major order
http://www.bom.gov.au/fwo/IDD60801/IDD60801.94105.json